Time;durP1;ratioP1;P1;durP2;ratioP2;P2;SDS_P1;SDS_P2;PMS_P1;PMS_P2;Temp;Humidity;BMP_temperature;BMP_pressure;BME280_temperature;BME280_humidity;BME280_pressure;Samples;Min_cycle;Max_cycle;Signal;HPM_P1;HPM_P2
2022/02/05 00:00:14;;;;;;;15.07;3.17;;;6.80;99.90;;;;;;5045448;28;20202;-79
2022/02/05 00:02:46;;;;;;;14.53;3.70;;;6.80;99.90;;;;;;5044585;28;20553;-78
2022/02/05 00:05:17;;;;;;;12.63;3.53;;;6.80;99.90;;;;;;5044460;28;20236;-78
2022/02/05 00:07:52;;;;;;;12.47;3.20;;;6.70;99.90;;;;;;5044903;28;20725;-78
2022/02/05 00:10:56;;;;;;;10.57;2.90;;;6.70;99.90;;;;;;5043865;28;20213;-78
2022/02/05 00:13:41;;;;;;;10.13;2.40;;;6.70;99.90;;;;;;5044584;28;20229;-80
2022/02/05 00:19:55;;;;;;;17.23;2.50;;;6.70;99.90;;;;;;5046547;28;20855;-78
2022/02/05 00:38:22;;;;;;;13.70;4.03;;;6.50;99.90;;;;;;5066259;28;20596;-79
2022/02/05 00:40:55;;;;;;;11.23;3.40;;;6.50;99.90;;;;;;5065836;28;20899;-77
2022/02/05 00:43:22;;;;;;;16.20;3.90;;;6.50;99.90;;;;;;5065787;28;20835;-76
2022/02/05 00:45:52;;;;;;;17.67;3.60;;;6.50;99.90;;;;;;5068298;28;20653;-78
2022/02/05 00:48:21;;;;;;;9.20;2.80;;;6.40;99.90;;;;;;5085903;28;20202;-78
2022/02/05 00:50:52;;;;;;;13.13;3.80;;;6.40;99.90;;;;;;5083833;28;20192;-76
2022/02/05 00:53:31;;;;;;;13.57;3.53;;;6.40;99.90;;;;;;5065436;28;20201;-79
2022/02/05 00:56:06;;;;;;;13.23;3.03;;;6.40;99.90;;;;;;5065509;28;20262;-79
2022/02/05 00:58:37;;;;;;;15.90;3.43;;;6.40;99.90;;;;;;5065546;28;20585;-80
2022/02/05 01:01:04;;;;;;;14.73;3.40;;;6.40;99.90;;;;;;5065448;28;20201;-78
2022/02/05 01:03:30;;;;;;;14.30;2.80;;;6.40;99.90;;;;;;5065895;28;20248;-78
2022/02/05 01:05:57;;;;;;;11.97;3.23;;;6.40;99.90;;;;;;5065177;28;20206;-78
2022/02/05 01:08:26;;;;;;;13.47;3.10;;;6.40;99.90;;;;;;5064388;28;20556;-78
2022/02/05 01:10:53;;;;;;;13.47;3.40;;;6.50;99.90;;;;;;5064582;28;20292;-78
2022/02/05 01:13:21;;;;;;;18.90;4.13;;;6.50;99.90;;;;;;5066022;28;20269;-77
2022/02/05 01:15:55;;;;;;;12.37;3.60;;;6.50;99.90;;;;;;5065415;28;20288;-78
2022/02/05 01:18:24;;;;;;;25.17;5.00;;;6.50;99.90;;;;;;5065462;28;20200;-76
2022/02/05 01:21:10;;;;;;;14.03;3.87;;;6.50;99.90;;;;;;5064828;28;20197;-77
2022/02/05 01:23:44;;;;;;;17.37;4.27;;;6.50;99.90;;;;;;5065769;28;20302;-77
2022/02/05 01:26:17;;;;;;;16.20;3.77;;;6.50;99.90;;;;;;5065826;28;20212;-77
2022/02/05 01:28:48;;;;;;;15.90;3.70;;;6.50;99.90;;;;;;5064811;28;20247;-77
2022/02/05 01:31:15;;;;;;;14.10;3.50;;;6.60;99.90;;;;;;5065809;28;20200;-79
2022/02/05 01:33:52;;;;;;;13.60;4.10;;;6.60;99.90;;;;;;5065341;28;20189;-79
2022/02/05 01:39:23;;;;;;;10.53;3.80;;;6.60;99.90;;;;;;5064755;28;20201;-78
2022/02/05 01:50:31;;;;;;;14.83;2.93;;;6.60;99.90;;;;;;5046262;28;20212;-77
2022/02/05 01:53:10;;;;;;;17.70;3.77;;;6.60;99.90;;;;;;5064194;28;20209;-78
2022/02/05 01:55:54;;;;;;;19.20;4.03;;;6.60;99.90;;;;;;5065182;28;20217;-78
2022/02/05 01:58:27;;;;;;;17.20;3.47;;;6.50;99.90;;;;;;5065098;28;20288;-78
2022/02/05 02:06:34;;;;;;;14.30;3.93;;;6.60;99.90;;;;;;5064717;28;20196;-78
2022/02/05 02:11:50;;;;;;;20.27;4.33;;;6.50;99.90;;;;;;5064341;28;20251;-79
2022/02/05 02:20:08;;;;;;;16.57;2.87;;;6.50;99.90;;;;;;5064363;28;20239;-77
2022/02/05 02:22:43;;;;;;;14.50;4.00;;;6.50;99.90;;;;;;5064481;28;20244;-77
2022/02/05 02:25:20;;;;;;;16.03;3.33;;;6.50;99.90;;;;;;5064107;28;20205;-77
2022/02/05 02:27:58;;;;;;;15.77;3.80;;;6.50;99.90;;;;;;5064039;28;20209;-78
2022/02/05 02:30:28;;;;;;;14.67;3.27;;;6.50;99.90;;;;;;5064391;28;20358;-78
2022/02/05 02:33:03;;;;;;;14.40;3.50;;;6.50;99.90;;;;;;5064198;28;20282;-78
2022/02/05 02:35:32;;;;;;;15.93;3.67;;;6.50;99.90;;;;;;5064716;28;20522;-77
2022/02/05 02:38:05;;;;;;;17.57;4.80;;;6.50;99.90;;;;;;5072558;28;20212;-78
2022/02/05 02:40:40;;;;;;;19.87;4.27;;;6.50;99.90;;;;;;5063918;28;20189;-78
2022/02/05 02:43:14;;;;;;;12.53;2.80;;;6.50;99.90;;;;;;5063895;28;20894;-78
2022/02/05 02:45:44;;;;;;;14.07;3.20;;;6.50;99.90;;;;;;5065432;28;20854;-81
2022/02/05 02:48:11;;;;;;;16.67;2.90;;;6.50;99.90;;;;;;5084299;28;20493;-78
2022/02/05 02:58:47;;;;;;;15.47;3.90;;;6.50;99.90;;;;;;5050669;28;20622;-78
2022/02/05 03:01:18;;;;;;;20.57;5.17;;;6.50;99.90;;;;;;5063561;28;20576;-79
2022/02/05 03:03:45;;;;;;;17.80;3.37;;;6.50;99.90;;;;;;5063418;28;20237;-82
2022/02/05 03:06:12;;;;;;;14.17;3.53;;;6.50;99.90;;;;;;5064129;28;20212;-78
2022/02/05 03:08:43;;;;;;;14.53;3.70;;;6.50;99.90;;;;;;5064416;28;20209;-77
2022/02/05 03:11:10;;;;;;;16.23;3.27;;;6.40;99.90;;;;;;5064731;28;20197;-79
2022/02/05 03:13:37;;;;;;;14.37;3.60;;;6.40;99.90;;;;;;5063380;28;20209;-79
2022/02/05 03:16:06;;;;;;;13.10;3.40;;;6.40;99.90;;;;;;5063530;28;20235;-77
2022/02/05 03:18:46;;;;;;;14.27;3.30;;;6.40;99.90;;;;;;5064059;28;20201;-77
2022/02/05 03:21:14;;;;;;;14.80;3.20;;;6.40;99.90;;;;;;5063779;28;20207;-78
2022/02/05 03:23:42;;;;;;;15.27;4.17;;;6.40;99.90;;;;;;5063613;28;20233;-78
2022/02/05 03:26:08;;;;;;;15.17;3.33;;;6.40;99.90;;;;;;5064403;28;20228;-77
2022/02/05 03:28:37;;;;;;;12.90;3.53;;;6.50;99.90;;;;;;5063413;28;20208;-78
2022/02/05 03:31:06;;;;;;;15.53;3.63;;;6.50;99.90;;;;;;5063570;28;20605;-79
2022/02/05 03:33:33;;;;;;;14.37;3.53;;;6.50;99.90;;;;;;5074202;28;20200;-80
2022/02/05 03:36:00;;;;;;;23.20;4.30;;;6.50;99.90;;;;;;5083100;28;20215;-79
2022/02/05 03:38:29;;;;;;;21.07;4.17;;;6.50;99.90;;;;;;5084247;28;20205;-78
2022/02/05 03:40:57;;;;;;;16.60;4.47;;;6.50;99.90;;;;;;5071268;28;20216;-79
2022/02/05 03:43:24;;;;;;;12.37;2.90;;;6.50;99.90;;;;;;5063822;28;20225;-78
2022/02/05 03:45:50;;;;;;;14.77;2.80;;;6.40;99.90;;;;;;5067150;28;20197;-78
2022/02/05 03:48:17;;;;;;;14.47;3.47;;;6.40;99.90;;;;;;5083261;28;20664;-77
2022/02/05 03:50:44;;;;;;;18.17;4.07;;;6.40;99.90;;;;;;5070456;28;20216;-78
2022/02/05 03:53:10;;;;;;;15.87;3.17;;;6.50;99.90;;;;;;5063299;28;20197;-78
2022/02/05 03:55:37;;;;;;;17.87;3.23;;;6.40;99.90;;;;;;5063502;28;20488;-78
2022/02/05 03:58:06;;;;;;;13.00;4.80;;;6.50;99.90;;;;;;5063257;28;20205;-78
2022/02/05 04:00:32;;;;;;;15.67;3.47;;;6.50;99.90;;;;;;5063308;28;20221;-77
2022/02/05 04:03:00;;;;;;;12.70;3.27;;;6.40;99.90;;;;;;5062162;28;20260;-78
2022/02/05 04:05:27;;;;;;;14.67;4.00;;;6.40;99.90;;;;;;5063636;28;20233;-78
2022/02/05 04:07:54;;;;;;;19.33;4.57;;;6.40;99.90;;;;;;5063308;28;20202;-77
2022/02/05 04:10:27;;;;;;;14.87;2.93;;;6.40;99.90;;;;;;5066463;28;20205;-78
2022/02/05 04:16:07;;;;;;;17.53;4.50;;;6.40;99.90;;;;;;5086961;28;20224;-77
2022/02/05 04:18:34;;;;;;;19.83;3.77;;;6.40;99.90;;;;;;5066281;28;20325;-78
2022/02/05 04:21:02;;;;;;;15.30;3.10;;;6.30;99.90;;;;;;5067058;28;20690;-79
2022/02/05 04:23:29;;;;;;;12.40;3.10;;;6.30;99.90;;;;;;5065949;28;20197;-78
2022/02/05 04:25:56;;;;;;;13.00;3.57;;;6.30;99.90;;;;;;5066546;28;20209;-77
2022/02/05 04:28:23;;;;;;;14.47;4.10;;;6.30;99.90;;;;;;5066680;28;20208;-77
2022/02/05 04:30:51;;;;;;;21.27;4.20;;;6.30;99.90;;;;;;5065193;28;20193;-78
2022/02/05 04:33:18;;;;;;;15.27;4.40;;;6.30;99.90;;;;;;5066806;28;20229;-78
2022/02/05 04:35:45;;;;;;;22.83;5.33;;;6.40;99.90;;;;;;5066625;28;20193;-78
2022/02/05 04:38:12;;;;;;;18.40;4.30;;;6.30;99.90;;;;;;5065415;28;20209;-78
2022/02/05 04:40:44;;;;;;;16.10;4.03;;;6.30;99.90;;;;;;5067060;28;20530;-78
2022/02/05 04:43:22;;;;;;;14.70;3.17;;;6.30;99.90;;;;;;5087286;28;20502;-79
2022/02/05 04:49:14;;;;;;;16.87;4.10;;;6.40;99.90;;;;;;5063782;28;20232;-78
2022/02/05 04:51:56;;;;;;;20.97;4.90;;;6.30;99.90;;;;;;5065307;28;20204;-78
2022/02/05 04:55:01;;;;;;;11.17;3.07;;;6.30;99.90;;;;;;5065992;28;20197;-78
2022/02/05 04:57:40;;;;;;;13.13;3.33;;;6.40;99.90;;;;;;5066222;28;20208;-77
2022/02/05 05:00:22;;;;;;;15.17;4.00;;;6.40;99.90;;;;;;5065760;28;20193;-76
2022/02/05 05:03:06;;;;;;;18.20;3.10;;;6.40;99.90;;;;;;5066309;28;20433;-77
2022/02/05 05:05:45;;;;;;;27.10;4.60;;;6.40;99.90;;;;;;5065990;28;20229;-78
2022/02/05 05:08:31;;;;;;;18.13;3.97;;;6.40;99.90;;;;;;5066076;28;20660;-78
2022/02/05 05:19:28;;;;;;;14.30;3.50;;;6.40;99.90;;;;;;5065224;28;20192;-79
2022/02/05 05:21:58;;;;;;;17.10;3.83;;;6.40;99.90;;;;;;5064978;28;20720;-78
2022/02/05 05:24:24;;;;;;;17.20;3.47;;;6.40;99.90;;;;;;5066030;28;20392;-77
2022/02/05 05:26:51;;;;;;;18.57;3.43;;;6.40;99.90;;;;;;5064813;28;20258;-76
2022/02/05 05:29:19;;;;;;;10.50;2.80;;;6.40;99.90;;;;;;5085061;28;20220;-77
2022/02/05 05:31:45;;;;;;;17.80;4.30;;;6.40;99.90;;;;;;5085585;28;20193;-76
2022/02/05 05:34:12;;;;;;;13.93;3.30;;;6.40;99.90;;;;;;5085337;28;20201;-77
2022/02/05 05:36:39;;;;;;;10.17;2.70;;;6.40;99.90;;;;;;5085328;28;20749;-77
2022/02/05 05:39:09;;;;;;;13.60;2.43;;;6.40;99.90;;;;;;5085369;28;20605;-76
2022/02/05 05:41:37;;;;;;;18.23;3.50;;;6.40;99.90;;;;;;5073092;28;20226;-78
2022/02/05 05:44:18;;;;;;;14.00;3.00;;;6.40;99.90;;;;;;5065165;28;20228;-77
2022/02/05 05:46:48;;;;;;;13.30;3.17;;;6.40;99.90;;;;;;5076346;28;20203;-78
2022/02/05 05:49:17;;;;;;;19.43;3.30;;;6.40;99.90;;;;;;5065169;28;20220;-78
2022/02/05 05:51:45;;;;;;;19.80;3.53;;;6.50;99.90;;;;;;5064129;28;20320;-78
2022/02/05 05:54:14;;;;;;;17.00;3.60;;;6.50;99.90;;;;;;5082357;28;20331;-78
2022/02/05 05:56:42;;;;;;;17.10;4.13;;;6.50;99.90;;;;;;5084822;28;20200;-76
2022/02/05 05:59:09;;;;;;;22.20;3.97;;;6.50;99.90;;;;;;5084805;28;20216;-77
2022/02/05 06:01:37;;;;;;;11.50;3.40;;;6.40;99.90;;;;;;5085256;28;20224;-77
2022/02/05 06:04:04;;;;;;;16.50;4.27;;;6.40;99.90;;;;;;5083889;28;20301;-78
2022/02/05 06:06:32;;;;;;;19.80;4.57;;;6.40;99.90;;;;;;5085490;28;20211;-77
2022/02/05 06:08:58;;;;;;;19.07;3.90;;;6.30;99.90;;;;;;5064255;28;20220;-77
2022/02/05 06:11:27;;;;;;;21.70;4.93;;;6.40;99.90;;;;;;5065117;28;20614;-79
2022/02/05 06:13:54;;;;;;;21.83;4.30;;;6.40;99.90;;;;;;5064898;28;20306;-77
2022/02/05 06:16:28;;;;;;;14.23;3.43;;;6.40;99.90;;;;;;5063721;28;20233;-78
2022/02/05 06:18:56;;;;;;;15.83;3.80;;;6.50;99.90;;;;;;5064864;28;20208;-77
2022/02/05 06:21:22;;;;;;;15.57;3.40;;;6.40;99.90;;;;;;5064372;28;20292;-77
2022/02/05 06:23:49;;;;;;;24.03;3.97;;;6.40;99.90;;;;;;5064077;28;20214;-78
2022/02/05 06:26:16;;;;;;;21.10;3.43;;;6.40;99.90;;;;;;5064242;28;20201;-77
2022/02/05 06:28:44;;;;;;;19.97;3.43;;;6.40;99.90;;;;;;5064301;28;20201;-78
2022/02/05 06:31:11;;;;;;;15.17;3.77;;;6.30;99.90;;;;;;5077558;28;20216;-78
2022/02/05 06:33:38;;;;;;;16.50;3.13;;;6.30;99.90;;;;;;5084596;28;20215;-76
2022/02/05 06:36:05;;;;;;;14.70;3.10;;;6.30;99.90;;;;;;5084069;28;20220;-78
2022/02/05 06:38:32;;;;;;;13.90;4.20;;;6.30;99.90;;;;;;5083245;28;20615;-78
2022/02/05 06:40:58;;;;;;;16.10;3.40;;;6.30;99.90;;;;;;5064210;28;20220;-77
2022/02/05 06:43:25;;;;;;;13.57;3.17;;;6.30;99.90;;;;;;5064381;28;20202;-77
2022/02/05 06:45:53;;;;;;;23.47;3.53;;;6.30;99.90;;;;;;5067304;28;20220;-76
2022/02/05 06:48:20;;;;;;;14.17;3.47;;;6.40;99.90;;;;;;5083689;28;20601;-77
2022/02/05 06:50:47;;;;;;;18.63;3.47;;;6.30;99.90;;;;;;5072582;28;20255;-78
2022/02/05 06:53:14;;;;;;;13.37;2.83;;;6.30;99.90;;;;;;5063554;28;20202;-77
2022/02/05 06:55:41;;;;;;;17.20;3.43;;;6.30;99.90;;;;;;5063448;28;20251;-76
2022/02/05 06:58:08;;;;;;;11.67;3.30;;;6.30;99.90;;;;;;5064310;28;20673;-76
2022/02/05 07:00:35;;;;;;;13.37;2.70;;;6.40;99.90;;;;;;5064263;28;20239;-77
2022/02/05 07:03:03;;;;;;;17.93;3.57;;;6.30;99.90;;;;;;5063913;28;20240;-77
2022/02/05 07:05:30;;;;;;;22.87;4.10;;;6.40;99.90;;;;;;5063344;28;20420;-78
2022/02/05 07:07:57;;;;;;;16.50;4.40;;;6.40;99.90;;;;;;5063878;28;20205;-78
2022/02/05 07:10:24;;;;;;;13.17;3.27;;;6.40;99.90;;;;;;5063957;28;20263;-77
2022/02/05 07:13:08;;;;;;;14.30;2.97;;;6.30;99.90;;;;;;5063776;28;20274;-76
2022/02/05 07:15:40;;;;;;;15.13;3.57;;;6.30;99.90;;;;;;5064213;28;20202;-78
2022/02/05 07:18:14;;;;;;;17.33;3.27;;;6.30;99.90;;;;;;5064375;28;20818;-77
2022/02/05 07:20:45;;;;;;;18.33;4.13;;;6.30;99.90;;;;;;5062695;28;20231;-77
2022/02/05 07:31:23;;;;;;;8.07;3.10;;;6.30;99.90;;;;;;5064346;28;20284;-76
2022/02/05 07:33:51;;;;;;;17.83;3.67;;;6.30;99.90;;;;;;5063588;28;20562;-76
2022/02/05 07:36:18;;;;;;;21.30;3.70;;;6.30;99.90;;;;;;5064234;28;20197;-80
2022/02/05 07:38:45;;;;;;;11.20;2.90;;;6.40;99.90;;;;;;5063134;28;20236;-75
2022/02/05 07:41:12;;;;;;;15.23;4.03;;;6.40;99.90;;;;;;5063626;28;20635;-77
2022/02/05 07:43:39;;;;;;;12.97;3.63;;;6.40;99.90;;;;;;5065765;28;20205;-77
2022/02/05 07:46:08;;;;;;;16.97;3.33;;;6.40;99.90;;;;;;5072750;28;20225;-79
2022/02/05 07:48:35;;;;;;;13.00;2.37;;;6.40;99.90;;;;;;5067069;28;20205;-77
2022/02/05 07:51:03;;;;;;;19.37;3.20;;;6.40;99.90;;;;;;5067470;28;20200;-78
2022/02/05 07:53:31;;;;;;;17.23;3.83;;;6.40;99.90;;;;;;5068078;28;20212;-78
2022/02/05 07:55:58;;;;;;;16.43;3.90;;;6.40;99.90;;;;;;5066628;28;20255;-78
2022/02/05 07:58:26;;;;;;;11.30;2.50;;;6.40;99.90;;;;;;5067563;28;20205;-78
2022/02/05 08:00:53;;;;;;;14.57;3.17;;;6.40;99.90;;;;;;5066757;28;20248;-77
2022/02/05 08:04:05;;;;;;;19.43;4.30;;;6.50;99.90;;;;;;5066118;28;20224;-78
2022/02/05 08:06:34;;;;;;;15.70;4.17;;;6.50;99.90;;;;;;5066423;28;20217;-77
2022/02/05 08:09:04;;;;;;;17.30;4.17;;;6.40;99.90;;;;;;5066164;28;20221;-77
2022/02/05 08:11:38;;;;;;;17.77;2.87;;;6.50;99.90;;;;;;5067512;28;20557;-77
2022/02/05 08:14:08;;;;;;;10.77;2.90;;;6.50;99.90;;;;;;5067346;28;20217;-78
2022/02/05 08:16:48;;;;;;;13.53;3.70;;;6.50;99.90;;;;;;5067040;28;20193;-79
2022/02/05 08:19:15;;;;;;;17.03;3.30;;;6.50;99.90;;;;;;5056624;28;20189;-77
2022/02/05 08:21:43;;;;;;;14.03;2.70;;;6.60;99.90;;;;;;5066458;28;20212;-78
2022/02/05 08:24:10;;;;;;;13.53;2.53;;;6.60;99.90;;;;;;5066471;28;20204;-79
2022/02/05 08:26:37;;;;;;;11.27;3.03;;;6.70;99.90;;;;;;5065847;28;20229;-78
2022/02/05 08:29:05;;;;;;;17.07;3.10;;;6.70;99.90;;;;;;5066194;28;20202;-78
2022/02/05 08:31:32;;;;;;;16.93;3.67;;;6.80;99.90;;;;;;5066327;28;20499;-78
2022/02/05 08:33:59;;;;;;;13.73;3.27;;;6.80;99.90;;;;;;5066182;28;20630;-78
2022/02/05 08:36:29;;;;;;;16.13;3.43;;;6.90;99.90;;;;;;5066777;28;20979;-78
2022/02/05 08:38:57;;;;;;;15.63;3.60;;;6.90;99.90;;;;;;5066060;28;20201;-78
2022/02/05 08:41:24;;;;;;;13.03;3.23;;;6.80;99.90;;;;;;5066763;28;20209;-78
2022/02/05 08:43:51;;;;;;;13.97;3.53;;;6.90;99.90;;;;;;5066115;28;20247;-78
2022/02/05 08:46:18;;;;;;;16.63;3.70;;;6.90;99.90;;;;;;5066566;28;20330;-77
2022/02/05 08:48:45;;;;;;;20.40;4.03;;;6.90;99.90;;;;;;5066250;28;20280;-77
2022/02/05 08:51:14;;;;;;;18.10;3.47;;;6.80;99.90;;;;;;5065342;28;20209;-78
2022/02/05 08:53:41;;;;;;;16.77;3.53;;;6.80;99.90;;;;;;5065880;28;20205;-79
2022/02/05 08:56:10;;;;;;;15.90;3.57;;;6.80;99.90;;;;;;5065946;28;20208;-78
2022/02/05 08:58:37;;;;;;;15.37;3.47;;;6.80;99.90;;;;;;5066227;28;20216;-79
2022/02/05 09:01:13;;;;;;;13.83;3.13;;;6.80;99.90;;;;;;5066330;28;20620;-78
2022/02/05 09:03:42;;;;;;;16.63;3.73;;;6.80;99.90;;;;;;5065494;28;20269;-78
2022/02/05 09:06:09;;;;;;;15.00;3.30;;;6.80;99.90;;;;;;5065523;28;20252;-78
2022/02/05 09:08:44;;;;;;;20.90;4.00;;;6.80;99.90;;;;;;5066377;28;20205;-79
2022/02/05 09:11:18;;;;;;;17.87;3.70;;;6.70;99.90;;;;;;5065320;28;20213;-78
2022/02/05 09:14:11;;;;;;;11.57;3.40;;;6.80;99.90;;;;;;5064344;28;20221;-77
2022/02/05 09:16:39;;;;;;;13.43;3.50;;;6.80;99.90;;;;;;5065473;28;20765;-79
2022/02/05 09:19:07;;;;;;;14.80;3.50;;;6.90;99.90;;;;;;5065073;28;20197;-78
2022/02/05 09:21:36;;;;;;;14.03;2.97;;;7.00;99.90;;;;;;5065656;28;20201;-79
2022/02/05 09:24:06;;;;;;;13.83;3.57;;;7.00;99.90;;;;;;5065307;28;20288;-79
2022/02/05 09:26:36;;;;;;;15.97;3.47;;;7.00;99.90;;;;;;5064340;28;20633;-79
2022/02/05 09:29:11;;;;;;;20.40;3.70;;;6.90;99.90;;;;;;5065801;28;20202;-81
2022/02/05 09:31:38;;;;;;;18.07;4.10;;;7.00;99.90;;;;;;5065099;28;20238;-79
2022/02/05 09:34:05;;;;;;;18.80;4.17;;;7.10;99.90;;;;;;5064187;28;20647;-80
2022/02/05 09:36:32;;;;;;;14.03;3.63;;;7.10;99.90;;;;;;5065046;28;20308;-80
2022/02/05 09:38:59;;;;;;;20.77;4.17;;;7.10;99.90;;;;;;5065511;28;20213;-78
2022/02/05 09:41:27;;;;;;;16.63;4.70;;;7.20;99.90;;;;;;5064782;28;20220;-78
2022/02/05 09:43:55;;;;;;;28.43;5.50;;;7.20;99.90;;;;;;5065483;28;20204;-78
2022/02/05 09:46:23;;;;;;;16.87;3.60;;;7.30;99.90;;;;;;5073591;28;20311;-81
2022/02/05 09:48:52;;;;;;;15.33;3.40;;;7.30;99.90;;;;;;5085251;28;20287;-79
2022/02/05 09:51:25;;;;;;;13.97;4.70;;;7.40;99.90;;;;;;5084965;28;20223;-80
2022/02/05 09:53:54;;;;;;;18.53;4.27;;;7.40;99.90;;;;;;5084914;28;20934;-79
2022/02/05 09:56:23;;;;;;;25.07;3.83;;;7.40;99.90;;;;;;5084717;28;20664;-80
2022/02/05 09:58:50;;;;;;;15.03;3.17;;;7.40;99.90;;;;;;5083768;28;20212;-79
2022/02/05 10:01:21;;;;;;;13.43;3.03;;;7.40;99.90;;;;;;5084876;28;20204;-78
2022/02/05 10:03:50;;;;;;;14.80;3.67;;;7.50;99.90;;;;;;5084961;28;20236;-78
2022/02/05 10:06:19;;;;;;;20.80;4.03;;;7.50;99.90;;;;;;5066921;28;20232;-79
2022/02/05 10:08:47;;;;;;;16.83;3.87;;;7.60;99.90;;;;;;5064206;28;20197;-79
2022/02/05 10:11:14;;;;;;;17.83;4.00;;;7.70;99.90;;;;;;5064896;28;20220;-79
2022/02/05 10:13:42;;;;;;;12.67;3.00;;;7.80;99.90;;;;;;5065137;28;20256;-79
2022/02/05 10:16:09;;;;;;;12.47;3.60;;;7.90;99.90;;;;;;5064306;28;20209;-78
2022/02/05 10:18:39;;;;;;;20.53;5.17;;;8.00;99.90;;;;;;5064654;28;20212;-77
2022/02/05 10:21:20;;;;;;;15.27;4.10;;;8.10;99.90;;;;;;5065462;28;20205;-78
2022/02/05 10:23:59;;;;;;;15.10;3.53;;;8.10;99.90;;;;;;5064881;28;20208;-78
2022/02/05 10:26:39;;;;;;;18.70;4.17;;;8.10;99.90;;;;;;5065117;28;20805;-77
2022/02/05 10:29:08;;;;;;;19.77;3.97;;;8.10;99.90;;;;;;5064899;28;20575;-79
2022/02/05 10:31:59;;;;;;;15.13;3.10;;;8.10;99.90;;;;;;5065005;28;20300;-78
2022/02/05 10:34:29;;;;;;;16.70;4.13;;;8.10;99.90;;;;;;5064514;28;20312;-80
2022/02/05 10:37:12;;;;;;;18.90;3.77;;;8.00;99.90;;;;;;5062908;28;20258;-79
2022/02/05 10:40:03;;;;;;;16.33;3.23;;;8.00;99.90;;;;;;5064078;28;20310;-79
2022/02/05 10:45:16;;;;;;;20.83;4.90;;;8.00;99.90;;;;;;5064039;28;20201;-78
2022/02/05 10:47:50;;;;;;;18.13;3.77;;;8.00;99.90;;;;;;5082341;28;20215;-79
2022/02/05 10:50:21;;;;;;;15.30;4.20;;;8.00;99.90;;;;;;5064083;28;20394;-81
2022/02/05 10:52:51;;;;;;;14.20;4.47;;;8.10;99.90;;;;;;5063782;28;20189;-80
2022/02/05 10:55:23;;;;;;;20.20;5.47;;;8.10;99.90;;;;;;5072856;28;20319;-79
2022/02/05 10:58:11;;;;;;;14.00;4.27;;;8.10;99.90;;;;;;5083505;28;20504;-79
2022/02/05 11:06:08;;;;;;;16.43;3.83;;;8.20;99.90;;;;;;5064031;28;20571;-77
2022/02/05 11:08:36;;;;;;;16.57;4.47;;;8.30;99.90;;;;;;5063442;28;20201;-77
2022/02/05 11:14:16;;;;;;;12.87;4.20;;;8.40;99.90;;;;;;5063780;28;20220;-79
2022/02/05 11:17:06;;;;;;;12.80;4.57;;;8.50;99.90;;;;;;5063924;28;20206;-79
2022/02/05 11:19:34;;;;;;;20.27;7.03;;;8.50;99.90;;;;;;5067455;28;20798;-79
2022/02/05 11:22:02;;;;;;;22.33;6.23;;;8.60;99.90;;;;;;5067496;28;20209;-79
2022/02/05 11:24:32;;;;;;;22.73;7.90;;;8.60;99.90;;;;;;5067766;28;20213;-79
2022/02/05 11:26:59;;;;;;;18.47;7.07;;;8.80;99.90;;;;;;5067684;28;20228;-78
2022/02/05 11:29:33;;;;;;;24.60;9.53;;;8.90;99.90;;;;;;5068315;28;20205;-79
2022/02/05 11:32:21;;;;;;;24.17;8.97;;;8.90;99.90;;;;;;5067574;28;20869;-79
2022/02/05 11:35:04;;;;;;;21.50;6.80;;;9.00;99.90;;;;;;5067255;28;20266;-77
2022/02/05 11:37:32;;;;;;;18.03;4.97;;;9.00;99.90;;;;;;5067506;28;20208;-77
2022/02/05 11:39:59;;;;;;;16.00;3.20;;;9.00;99.90;;;;;;5066799;28;20211;-77
2022/02/05 11:42:31;;;;;;;18.87;3.40;;;8.90;99.90;;;;;;5068102;28;20216;-77
2022/02/05 11:44:59;;;;;;;20.23;3.97;;;8.90;99.90;;;;;;5067117;28;20241;-77
2022/02/05 11:47:31;;;;;;;17.90;3.63;;;8.90;99.90;;;;;;5079965;28;20247;-78
2022/02/05 11:50:28;;;;;;;15.03;3.30;;;9.00;99.90;;;;;;5067526;28;20202;-76
2022/02/05 11:53:07;;;;;;;13.27;3.53;;;9.10;99.90;;;;;;5067804;28;20201;-80
2022/02/05 11:55:43;;;;;;;18.60;4.93;;;9.10;99.90;;;;;;5066771;28;20683;-78
2022/02/05 11:58:12;;;;;;;15.73;4.20;;;9.20;99.90;;;;;;5067445;28;20617;-77
2022/02/05 12:00:43;;;;;;;14.90;3.80;;;9.20;99.90;;;;;;5066880;28;20209;-78
2022/02/05 12:03:33;;;;;;;14.17;3.87;;;9.20;99.90;;;;;;5067033;28;20244;-77
2022/02/05 12:06:06;;;;;;;14.43;3.27;;;9.20;99.90;;;;;;5067190;28;20607;-77
2022/02/05 12:08:37;;;;;;;15.00;3.50;;;9.30;99.90;;;;;;5066214;28;20627;-78
2022/02/05 12:11:26;;;;;;;15.53;3.90;;;9.30;99.90;;;;;;5066758;28;20627;-77
2022/02/05 12:14:08;;;;;;;20.90;3.30;;;9.30;99.90;;;;;;5066529;28;20232;-78
2022/02/05 12:16:37;;;;;;;20.13;3.70;;;9.30;99.90;;;;;;5066144;28;20197;-78
2022/02/05 12:19:14;;;;;;;13.77;3.23;;;9.20;99.90;;;;;;5067101;28;20197;-79
2022/02/05 12:22:03;;;;;;;9.00;2.63;;;9.10;99.90;;;;;;5066008;28;20209;-78
2022/02/05 12:25:14;;;;;;;14.70;3.60;;;9.10;99.90;;;;;;5066569;28;20256;-77
2022/02/05 12:27:42;;;;;;;15.17;3.40;;;9.10;99.90;;;;;;5065025;28;20224;-76
2022/02/05 12:30:41;;;;;;;13.87;3.50;;;9.20;99.90;;;;;;5065926;28;20198;-78
2022/02/05 12:33:10;;;;;;;15.20;2.90;;;9.20;99.90;;;;;;5022995;28;20203;-77
2022/02/05 12:35:38;;;;;;;14.10;3.23;;;9.20;99.90;;;;;;5058161;28;20233;-78
2022/02/05 12:38:07;;;;;;;15.43;4.03;;;9.20;99.90;;;;;;5065150;28;20224;-78
2022/02/05 12:40:45;;;;;;;14.87;3.53;;;9.20;99.90;;;;;;5066387;28;20962;-78
2022/02/05 12:43:14;;;;;;;14.40;3.50;;;9.20;99.90;;;;;;5065831;28;20211;-78
2022/02/05 12:45:51;;;;;;;24.70;5.47;;;9.20;99.90;;;;;;5068053;28;20580;-79
2022/02/05 12:48:22;;;;;;;20.13;4.30;;;9.20;99.90;;;;;;5086961;28;20204;-78
2022/02/05 12:50:51;;;;;;;14.03;4.67;;;9.10;99.90;;;;;;5085777;28;20201;-78
2022/02/05 12:53:18;;;;;;;15.87;4.47;;;9.20;99.90;;;;;;5086314;28;20214;-77
2022/02/05 12:55:46;;;;;;;17.37;3.33;;;9.20;99.90;;;;;;5070983;28;20235;-78
2022/02/05 12:58:19;;;;;;;19.67;3.77;;;9.20;99.90;;;;;;5065893;28;20198;-78
2022/02/05 13:00:45;;;;;;;21.17;4.53;;;9.20;99.90;;;;;;5066194;28;20201;-77
2022/02/05 13:03:23;;;;;;;15.27;4.13;;;9.20;99.90;;;;;;5065563;28;20236;-78
2022/02/05 13:05:50;;;;;;;13.20;4.27;;;9.30;99.90;;;;;;5065127;28;20204;-77
2022/02/05 13:08:17;;;;;;;25.47;3.97;;;9.30;99.90;;;;;;5065461;28;20229;-77
2022/02/05 13:10:45;;;;;;;20.03;4.80;;;9.20;99.90;;;;;;5065789;28;20613;-78
2022/02/05 13:13:12;;;;;;;26.70;5.10;;;9.20;99.90;;;;;;5065489;28;20230;-76
2022/02/05 13:15:40;;;;;;;22.03;5.00;;;9.20;99.90;;;;;;5066241;28;20209;-78
2022/02/05 13:18:20;;;;;;;16.93;3.67;;;9.20;99.90;;;;;;5066047;28;20215;-78
2022/02/05 13:26:20;;;;;;;24.30;3.90;;;9.30;99.90;;;;;;5065099;28;20248;-78
2022/02/05 13:29:16;;;;;;;22.60;4.20;;;9.20;99.90;;;;;;5065340;28;20196;-79
2022/02/05 13:34:32;;;;;;;17.53;4.67;;;9.20;99.90;;;;;;5065536;28;20238;-79
2022/02/05 13:37:06;;;;;;;19.47;4.53;;;9.20;99.90;;;;;;5064706;28;20205;-78
2022/02/05 13:39:52;;;;;;;21.10;4.23;;;9.20;99.90;;;;;;5065113;28;20200;-78
2022/02/05 13:42:23;;;;;;;20.07;5.10;;;9.20;99.90;;;;;;5064365;28;20319;-78
2022/02/05 13:45:02;;;;;;;27.33;5.20;;;9.10;99.90;;;;;;5064952;28;20251;-77
2022/02/05 13:47:33;;;;;;;22.60;4.10;;;9.10;99.90;;;;;;5073460;28;20228;-78
2022/02/05 13:50:03;;;;;;;17.57;4.27;;;9.10;99.90;;;;;;5064811;28;20216;-78
2022/02/05 13:52:39;;;;;;;21.80;4.73;;;9.10;99.90;;;;;;5065260;28;20208;-77
2022/02/05 13:55:16;;;;;;;16.90;5.30;;;9.20;99.90;;;;;;5064292;28;20604;-79
2022/02/05 13:57:58;;;;;;;19.53;3.40;;;9.20;99.90;;;;;;5064235;28;20201;-78
2022/02/05 14:00:38;;;;;;;15.63;4.50;;;9.10;99.90;;;;;;5064628;28;20209;-77
2022/02/05 14:03:08;;;;;;;21.57;4.17;;;9.20;99.90;;;;;;5064408;28;20703;-78
2022/02/05 14:05:35;;;;;;;16.00;3.53;;;9.10;99.90;;;;;;5065479;28;20229;-77
2022/02/05 14:08:03;;;;;;;24.67;4.17;;;9.10;99.90;;;;;;5063151;28;20232;-77
2022/02/05 14:10:31;;;;;;;24.07;4.37;;;9.10;99.90;;;;;;5064453;28;20596;-79
2022/02/05 14:12:59;;;;;;;23.73;4.77;;;9.00;99.90;;;;;;5064731;28;20225;-77
2022/02/05 14:15:28;;;;;;;22.57;5.67;;;9.00;99.90;;;;;;5063439;28;20213;-78
2022/02/05 14:18:10;;;;;;;19.30;4.70;;;9.00;99.90;;;;;;5065038;28;20567;-79
2022/02/05 14:20:48;;;;;;;22.03;5.07;;;9.00;99.90;;;;;;5062379;28;21031;-79
2022/02/05 14:23:17;;;;;;;17.03;4.43;;;8.90;99.90;;;;;;5063848;28;20205;-79
2022/02/05 14:25:58;;;;;;;24.13;5.00;;;8.90;99.90;;;;;;5063774;28;20201;-78
2022/02/05 14:28:31;;;;;;;22.03;5.20;;;8.90;99.90;;;;;;5063407;28;20874;-78
2022/02/05 14:31:12;;;;;;;30.27;6.70;;;8.90;99.90;;;;;;5063561;28;20205;-78
2022/02/05 14:34:06;;;;;;;17.43;4.87;;;8.80;99.90;;;;;;5064430;28;20200;-78
2022/02/05 14:42:03;;;;;;;20.50;4.33;;;8.80;99.90;;;;;;5064586;28;20235;-78
2022/02/05 14:44:30;;;;;;;19.80;3.90;;;8.70;99.90;;;;;;5063207;28;20486;-78
2022/02/05 14:46:57;;;;;;;21.83;4.80;;;8.70;99.90;;;;;;5069631;28;20961;-79
2022/02/05 14:49:25;;;;;;;23.73;5.13;;;8.60;99.90;;;;;;5063897;28;20201;-76
2022/02/05 14:51:53;;;;;;;14.90;4.10;;;8.60;99.90;;;;;;5063145;28;20213;-78